createdAt,value
2023-11-24T00:00:42.572Z,83.99
2023-11-24T00:03:45.288Z,84.59
2023-11-24T00:06:47.752Z,84.13
2023-11-24T00:09:50.553Z,84.07
2023-11-24T00:12:53.027Z,84.63
2023-11-24T00:15:55.865Z,84.51
2023-11-24T00:18:58.327Z,84.39
2023-11-24T00:22:01.231Z,84.37
2023-11-24T00:25:03.878Z,85.04
2023-11-24T00:28:06.776Z,84.89
2023-11-24T00:31:09.400Z,85.03
2023-11-24T00:34:12.626Z,85.15
2023-11-24T00:37:15.161Z,85.38
2023-11-24T00:40:19.598Z,85.82
2023-11-24T00:43:23.455Z,85.63
2023-11-24T00:46:26.253Z,85.58
2023-11-24T00:49:28.647Z,85.18
2023-11-24T00:52:31.325Z,85.19
2023-11-24T00:55:33.828Z,85.49
2023-11-24T00:58:36.946Z,85.74
2023-11-24T01:01:39.431Z,86.05
2023-11-24T01:04:42.335Z,85.69
2023-11-24T01:07:44.764Z,85.35
2023-11-24T01:10:47.914Z,85.62
2023-11-24T01:13:50.384Z,85.19
2023-11-24T01:16:53.432Z,84.71
2023-11-24T01:19:55.822Z,84.37
2023-11-24T01:22:58.564Z,84.41
2023-11-24T01:26:00.868Z,84.33
2023-11-24T01:29:03.746Z,84.31
2023-11-24T01:32:06.554Z,84.51
2023-11-24T01:35:10.775Z,84.61
2023-11-24T01:38:13.489Z,84.25
2023-11-24T01:41:16.131Z,84.07
2023-11-24T01:44:19.922Z,83.91
2023-11-24T01:47:22.641Z,83.95
2023-11-24T01:50:25.604Z,84.33
2023-11-24T01:53:28.295Z,84.62
2023-11-24T01:56:32.193Z,84.99
2023-11-24T01:59:37.865Z,85.31
2023-11-24T02:02:43.936Z,85.59
2023-11-24T02:05:47.007Z,85.78
2023-11-24T02:08:49.450Z,85.92
2023-11-24T02:11:52.219Z,86.03
2023-11-24T02:14:54.721Z,85.94
2023-11-24T02:17:57.461Z,85.73
2023-11-24T02:21:02.053Z,85.61
2023-11-24T02:24:07.393Z,85.04
2023-11-24T02:27:09.850Z,85.42
2023-11-24T02:30:12.920Z,85.46
2023-11-24T02:33:16.502Z,85.81
2023-11-24T02:36:28.588Z,85.97
2023-11-24T02:39:31.242Z,85.70
2023-11-24T02:42:34.045Z,85.73
2023-11-24T02:45:37.231Z,85.81
2023-11-24T02:48:44.055Z,85.61
2023-11-24T02:51:46.623Z,85.21
2023-11-24T02:54:49.402Z,84.55
2023-11-24T02:57:51.870Z,84.32
2023-11-24T03:00:54.742Z,84.71
2023-11-24T03:03:57.287Z,85.17
2023-11-24T03:07:00.350Z,85.33
2023-11-24T03:10:04.389Z,85.92
2023-11-24T03:13:08.359Z,86.80
2023-11-24T03:16:12.095Z,87.00
2023-11-24T03:19:14.999Z,87.16
2023-11-24T03:22:17.378Z,87.93
2023-11-24T03:25:20.017Z,88.06
2023-11-24T03:28:22.381Z,87.85
2023-11-24T03:31:25.072Z,88.10
2023-11-24T03:34:27.993Z,87.86
2023-11-24T03:37:30.712Z,88.32
2023-11-24T03:40:35.153Z,88.59
2023-11-24T03:43:37.948Z,88.89
2023-11-24T03:46:40.376Z,88.84
2023-11-24T03:49:43.451Z,88.56
2023-11-24T03:52:45.903Z,88.88
2023-11-24T03:55:48.656Z,89.19
2023-11-24T03:58:51.012Z,89.78
2023-11-24T04:01:54.180Z,90.26
2023-11-24T04:04:57.416Z,90.10
2023-11-24T04:07:59.893Z,90.45
2023-11-24T04:11:03.555Z,90.14
2023-11-24T04:14:05.981Z,90.52
2023-11-24T04:17:10.937Z,90.96
2023-11-24T04:20:13.473Z,91.64
2023-11-24T04:23:16.271Z,91.25
2023-11-24T04:26:19.498Z,91.55
2023-11-24T04:29:22.893Z,91.62
2023-11-24T04:32:25.344Z,91.81
2023-11-24T04:35:28.525Z,91.90
2023-11-24T04:38:30.944Z,91.21
2023-11-24T04:41:33.561Z,91.45
2023-11-24T04:44:35.928Z,91.17
2023-11-24T04:47:40.216Z,90.72
2023-11-24T04:50:42.665Z,90.84
2023-11-24T04:53:45.317Z,90.83
2023-11-24T04:56:47.949Z,90.87
2023-11-24T04:59:50.613Z,90.97
2023-11-24T05:02:53.076Z,91.29
2023-11-24T05:05:55.746Z,91.09
2023-11-24T05:08:58.118Z,91.90
2023-11-24T05:12:00.790Z,92.08
2023-11-24T05:15:09.949Z,91.54
2023-11-24T05:18:14.185Z,91.91
2023-11-24T05:21:16.581Z,92.05
2023-11-24T05:24:19.260Z,92.17
2023-11-24T05:27:21.671Z,92.00
2023-11-24T05:30:24.775Z,92.01
2023-11-24T05:33:27.096Z,91.46
2023-11-24T05:36:29.790Z,90.98
2023-11-24T05:39:32.285Z,90.93
2023-11-24T05:42:35.073Z,90.70
2023-11-24T05:45:37.582Z,89.96
2023-11-24T05:48:40.256Z,90.04
2023-11-24T05:51:45.144Z,89.29
2023-11-24T05:54:49.510Z,89.29
2023-11-24T05:57:51.979Z,89.17
2023-11-24T06:00:54.698Z,88.33
2023-11-24T06:03:57.627Z,88.33
2023-11-24T06:07:00.091Z,87.94
2023-11-24T06:10:02.985Z,87.14
2023-11-24T06:13:05.466Z,87.23
2023-11-24T06:16:08.464Z,87.13
2023-11-24T06:19:10.929Z,87.62
2023-11-24T06:22:13.660Z,87.57
2023-11-24T06:25:16.746Z,87.88
2023-11-24T06:28:19.532Z,88.09
2023-11-24T06:31:21.918Z,88.52
2023-11-24T06:34:26.178Z,88.87
2023-11-24T06:37:28.726Z,88.70
2023-11-24T06:40:31.400Z,89.08
2023-11-24T06:43:33.789Z,89.26
2023-11-24T06:46:36.600Z,89.43
2023-11-24T06:49:39.049Z,89.45
2023-11-24T06:52:44.083Z,89.47
2023-11-24T06:55:46.562Z,89.44
2023-11-24T06:58:49.320Z,88.82
2023-11-24T07:01:52.141Z,89.15
2023-11-24T07:04:55.413Z,88.36
2023-11-24T07:07:57.782Z,88.33
2023-11-24T07:11:00.671Z,88.19
2023-11-24T07:14:03.459Z,87.52
2023-11-24T07:17:07.382Z,87.18
2023-11-24T07:20:12.662Z,86.93
2023-11-24T07:23:15.538Z,87.05
2023-11-24T07:26:19.373Z,87.33
2023-11-24T07:29:22.909Z,87.15
2023-11-24T07:32:29.567Z,87.66
2023-11-24T07:35:32.295Z,87.70
2023-11-24T07:38:34.652Z,88.48
2023-11-24T07:41:37.690Z,88.32
2023-11-24T07:44:40.088Z,89.22
2023-11-24T07:47:43.036Z,89.37
2023-11-24T07:50:45.593Z,89.39
2023-11-24T07:53:48.450Z,88.47
2023-11-24T07:56:50.882Z,88.09
2023-11-24T07:59:56.510Z,86.25
2023-11-24T08:02:59.006Z,86.08
2023-11-24T08:06:07.605Z,85.86
2023-11-24T08:09:10.572Z,85.65
2023-11-24T08:12:14.388Z,84.95
2023-11-24T08:15:17.639Z,84.28
2023-11-24T08:18:20.233Z,83.45
2023-11-24T08:21:22.688Z,84.07
2023-11-24T08:24:25.507Z,83.33
2023-11-24T08:27:28.268Z,83.22
2023-11-24T08:30:33.425Z,82.62
2023-11-24T08:33:36.231Z,81.67
2023-11-24T08:36:40.283Z,80.01
2023-11-24T08:39:42.824Z,79.45
2023-11-24T08:42:46.177Z,78.84
2023-11-24T08:45:48.944Z,77.24
2023-11-24T08:48:51.740Z,75.63
2023-11-24T08:51:54.187Z,74.91
2023-11-24T08:54:56.930Z,74.48
2023-11-24T08:58:02.271Z,74.14
2023-11-24T09:01:06.862Z,72.50
2023-11-24T09:04:11.384Z,71.89
2023-11-24T09:07:14.254Z,71.04
2023-11-24T09:10:17.675Z,69.70
2023-11-24T09:13:20.580Z,68.67
2023-11-24T09:16:23.235Z,67.43
2023-11-24T09:19:26.212Z,67.12
2023-11-24T09:22:28.604Z,65.71
2023-11-24T09:25:33.200Z,63.39
2023-11-24T09:28:36.094Z,61.90
2023-11-24T09:31:38.919Z,62.33
2023-11-24T09:34:41.499Z,60.54
2023-11-24T09:37:44.249Z,59.61
2023-11-24T09:40:47.369Z,58.66
2023-11-24T09:43:50.653Z,57.84
2023-11-24T09:46:54.264Z,56.71
2023-11-24T09:49:59.373Z,57.51
2023-11-24T09:53:01.830Z,56.48
2023-11-24T09:56:05.563Z,56.81
2023-11-24T09:59:09.834Z,55.85
2023-11-24T10:02:19.344Z,56.82
2023-11-24T10:05:22.805Z,57.32
2023-11-24T10:08:25.702Z,56.36
2023-11-24T10:11:34.501Z,54.63
2023-11-24T10:14:44.450Z,55.42
2023-11-24T10:17:49.973Z,54.83
2023-11-24T10:20:52.458Z,55.73
2023-11-24T10:23:55.402Z,56.21
2023-11-24T10:26:57.948Z,57.24
2023-11-24T10:30:00.637Z,58.09
2023-11-24T10:33:05.133Z,58.30
2023-11-24T10:36:10.049Z,59.03
2023-11-24T10:39:16.193Z,59.17
2023-11-24T10:42:20.550Z,59.39
2023-11-24T10:45:24.061Z,59.02
2023-11-24T10:48:59.094Z,59.37
2023-11-24T10:52:07.524Z,59.75
2023-11-24T10:55:15.195Z,59.68
2023-11-24T10:58:17.867Z,59.01
2023-11-24T11:01:24.459Z,58.07
2023-11-24T11:04:29.067Z,57.78
2023-11-24T11:07:42.231Z,57.92
2023-11-24T11:10:54.454Z,58.23
2023-11-24T11:13:59.166Z,58.98
2023-11-24T11:17:13.167Z,60.97
2023-11-24T11:20:21.365Z,61.69
2023-11-24T11:23:27.273Z,62.33
2023-11-24T11:26:46.819Z,62.69
2023-11-24T11:29:49.140Z,62.56
2023-11-24T11:33:05.148Z,62.96
2023-11-24T11:36:11.327Z,62.71
2023-11-24T11:39:19.131Z,63.03
2023-11-24T11:42:30.212Z,63.54
2023-11-24T11:45:34.218Z,64.10
2023-11-24T11:48:41.254Z,64.47
2023-11-24T11:51:45.622Z,64.38
2023-11-24T11:54:49.559Z,64.37
2023-11-24T11:57:58.233Z,63.64
2023-11-24T12:01:00.856Z,63.08
2023-11-24T12:04:05.187Z,63.42
2023-11-24T12:07:10.303Z,62.88
2023-11-24T12:10:13.088Z,62.83
2023-11-24T12:13:16.255Z,62.75
2023-11-24T12:16:19.110Z,62.50
2023-11-24T12:19:23.559Z,61.69
2023-11-24T12:22:29.487Z,61.46
2023-11-24T12:25:32.567Z,61.91
2023-11-24T12:28:35.472Z,62.07
2023-11-24T12:31:40.844Z,61.95
2023-11-24T12:34:44.781Z,62.27
2023-11-24T12:37:50.514Z,61.33
2023-11-24T12:40:53.487Z,61.55
2023-11-24T12:44:00.481Z,61.53
2023-11-24T12:47:16.608Z,62.01
2023-11-24T12:50:21.839Z,62.27
2023-11-24T12:53:24.767Z,62.18
2023-11-24T12:56:29.354Z,61.95
2023-11-24T12:59:32.020Z,61.87
2023-11-24T13:02:34.467Z,62.02
2023-11-24T13:05:39.621Z,62.09
2023-11-24T13:08:42.008Z,62.39
2023-11-24T13:11:44.754Z,62.84
2023-11-24T13:14:47.240Z,63.21
2023-11-24T13:17:50.744Z,63.79
2023-11-24T13:20:53.325Z,64.24
2023-11-24T13:23:56.105Z,65.26
2023-11-24T13:26:58.412Z,66.02
2023-11-24T13:30:01.341Z,66.16
2023-11-24T13:33:04.090Z,66.57
2023-11-24T13:36:07.364Z,66.55
2023-11-24T13:39:14.527Z,66.71
2023-11-24T13:42:17.952Z,67.06
2023-11-24T13:45:21.813Z,67.46
2023-11-24T13:48:25.208Z,67.88
2023-11-24T13:51:28.501Z,68.24
2023-11-24T13:54:31.954Z,68.53
2023-11-24T13:57:34.788Z,68.59
2023-11-24T14:00:37.970Z,69.41
2023-11-24T14:03:41.412Z,69.82
2023-11-24T14:06:49.014Z,69.98
2023-11-24T14:09:51.746Z,70.33
2023-11-24T14:12:54.179Z,70.22
2023-11-24T14:15:56.960Z,70.76
2023-11-24T14:19:00.639Z,70.98
2023-11-24T14:22:05.815Z,71.02
2023-11-24T14:25:09.515Z,71.32
2023-11-24T14:28:12.423Z,71.38
2023-11-24T14:31:14.920Z,71.34
2023-11-24T14:34:20.229Z,71.32
2023-11-24T14:37:22.996Z,71.63
2023-11-24T14:40:25.779Z,71.41
2023-11-24T14:43:29.477Z,71.77
2023-11-24T14:46:32.612Z,71.95
2023-11-24T14:49:35.480Z,72.31
2023-11-24T14:52:38.281Z,72.26
2023-11-24T14:55:41.955Z,71.84
2023-11-24T14:58:44.735Z,71.91
2023-11-24T15:01:47.320Z,71.80
2023-11-24T15:04:50.383Z,72.31
2023-11-24T15:07:52.880Z,72.14
2023-11-24T15:10:55.595Z,72.06
2023-11-24T15:13:57.930Z,71.87
2023-11-24T15:17:07.257Z,72.04
2023-11-24T15:20:27.097Z,72.02
2023-11-24T15:23:30.781Z,72.06
2023-11-24T15:26:37.335Z,73.39
2023-11-24T15:29:40.864Z,72.60
2023-11-24T15:32:43.780Z,72.84
2023-11-24T15:35:49.843Z,73.15
2023-11-24T15:38:52.295Z,73.63
2023-11-24T15:41:54.994Z,73.67
2023-11-24T15:45:01.781Z,74.15
2023-11-24T15:48:08.974Z,74.44
2023-11-24T15:51:23.179Z,74.16
2023-11-24T15:54:27.874Z,74.47
2023-11-24T15:57:30.337Z,74.89
2023-11-24T16:00:34.770Z,74.22
2023-11-24T16:03:37.583Z,74.35
2023-11-24T16:06:42.309Z,74.20
2023-11-24T16:09:46.330Z,73.71
2023-11-24T16:12:49.898Z,73.66
2023-11-24T16:15:52.977Z,72.91
2023-11-24T16:18:55.924Z,72.75
2023-11-24T16:21:59.410Z,72.19
2023-11-24T16:25:01.827Z,72.79
2023-11-24T16:28:04.960Z,73.19
2023-11-24T16:31:07.370Z,73.43
2023-11-24T16:34:10.832Z,73.23
2023-11-24T16:37:13.507Z,72.86
2023-11-24T16:40:16.743Z,72.83
2023-11-24T16:43:19.482Z,72.88
2023-11-24T16:46:22.581Z,72.95
2023-11-24T16:49:25.434Z,72.99
2023-11-24T16:52:28.323Z,73.26
2023-11-24T16:55:30.986Z,73.58
2023-11-24T16:58:35.242Z,73.65
2023-11-24T17:01:37.832Z,73.58
2023-11-24T17:04:40.756Z,73.65
2023-11-24T17:07:43.393Z,73.74
2023-11-24T17:10:46.443Z,73.42
2023-11-24T17:13:48.926Z,73.26
2023-11-24T17:16:52.406Z,73.38
2023-11-24T17:19:55.733Z,73.27
2023-11-24T17:22:58.580Z,73.21
2023-11-24T17:26:00.966Z,72.47
2023-11-24T17:29:03.871Z,72.50
2023-11-24T17:32:06.590Z,72.20
2023-11-24T17:35:13.663Z,71.88
2023-11-24T17:38:19.642Z,71.65
2023-11-24T17:41:25.351Z,71.74
2023-11-24T17:44:29.725Z,71.89
2023-11-24T17:47:33.633Z,72.00
2023-11-24T17:50:36.127Z,72.47
2023-11-24T17:53:38.932Z,72.38
2023-11-24T17:56:43.018Z,72.48
2023-11-24T17:59:45.678Z,72.64
2023-11-24T18:02:51.260Z,72.80
2023-11-24T18:05:54.250Z,73.03
2023-11-24T18:08:58.685Z,73.29
2023-11-24T18:12:01.479Z,73.52
2023-11-24T18:15:05.511Z,73.75
2023-11-24T18:18:08.309Z,74.08
2023-11-24T18:21:11.557Z,74.27
2023-11-24T18:24:15.926Z,74.80
2023-11-24T18:27:19.858Z,75.04
2023-11-24T18:30:22.828Z,74.94
2023-11-24T18:33:26.728Z,75.20
2023-11-24T18:36:29.733Z,75.36
2023-11-24T18:39:32.997Z,75.18
2023-11-24T18:42:35.790Z,75.33
2023-11-24T18:45:38.209Z,75.57
2023-11-24T18:48:40.858Z,76.03
2023-11-24T18:51:44.144Z,76.21
2023-11-24T18:54:48.952Z,76.29
2023-11-24T18:57:53.068Z,76.44
2023-11-24T19:00:55.825Z,76.68
2023-11-24T19:03:58.302Z,76.57
2023-11-24T19:07:02.885Z,76.48
2023-11-24T19:10:06.319Z,76.56
2023-11-24T19:13:08.981Z,76.50
2023-11-24T19:16:12.824Z,76.85
2023-11-24T19:19:16.034Z,76.30
2023-11-24T19:22:19.267Z,76.30
2023-11-24T19:25:22.039Z,76.41
2023-11-24T19:28:24.428Z,76.65
2023-11-24T19:31:28.770Z,76.51
2023-11-24T19:34:31.232Z,76.69
2023-11-24T19:37:33.982Z,76.84
2023-11-24T19:40:36.525Z,77.01
2023-11-24T19:43:39.232Z,77.33
2023-11-24T19:46:41.722Z,77.35
2023-11-24T19:49:47.197Z,77.16
2023-11-24T19:52:49.800Z,77.34
2023-11-24T19:55:52.833Z,77.80
2023-11-24T19:58:55.211Z,77.53
2023-11-24T20:01:59.876Z,77.66
2023-11-24T20:05:02.905Z,77.76
2023-11-24T20:08:05.857Z,77.61
2023-11-24T20:11:09.638Z,77.33
2023-11-24T20:14:12.034Z,77.42
2023-11-24T20:17:14.763Z,77.62
2023-11-24T20:20:17.938Z,77.62
2023-11-24T20:23:21.016Z,77.70
2023-11-24T20:26:23.427Z,78.27
2023-11-24T20:29:26.162Z,77.63
2023-11-24T20:32:28.688Z,77.66
2023-11-24T20:35:31.430Z,77.59
2023-11-24T20:38:33.751Z,78.07
2023-11-24T20:41:41.045Z,77.54
2023-11-24T20:44:43.716Z,77.74
2023-11-24T20:47:46.460Z,77.78
2023-11-24T20:50:48.836Z,77.82
2023-11-24T20:53:51.493Z,77.98
2023-11-24T20:56:53.893Z,78.18
2023-11-24T20:59:56.617Z,78.44
2023-11-24T21:02:59.014Z,77.96
2023-11-24T21:06:01.735Z,77.48
2023-11-24T21:09:04.136Z,77.30
2023-11-24T21:12:08.229Z,77.55
2023-11-24T21:15:15.614Z,77.25
2023-11-24T21:18:18.854Z,77.18
2023-11-24T21:21:21.286Z,76.67
2023-11-24T21:24:23.958Z,76.22
2023-11-24T21:27:27.121Z,76.28
2023-11-24T21:30:30.035Z,75.64
2023-11-24T21:33:32.910Z,75.58
2023-11-24T21:36:36.068Z,75.06
2023-11-24T21:39:38.360Z,75.12
2023-11-24T21:42:42.776Z,75.06
2023-11-24T21:45:45.254Z,75.31
2023-11-24T21:48:48.967Z,75.42
2023-11-24T21:51:51.312Z,76.02
2023-11-24T21:54:54.378Z,75.88
2023-11-24T21:57:56.951Z,76.18
2023-11-24T22:00:59.847Z,75.75
2023-11-24T22:04:02.662Z,76.13
2023-11-24T22:07:05.373Z,76.52
2023-11-24T22:10:11.844Z,76.52
2023-11-24T22:13:14.282Z,76.63
2023-11-24T22:16:17.107Z,76.57
2023-11-24T22:19:20.424Z,77.07
2023-11-24T22:22:23.180Z,76.12
2023-11-24T22:25:25.602Z,76.17
2023-11-24T22:28:28.394Z,75.96
2023-11-24T22:31:30.956Z,75.96
2023-11-24T22:34:33.745Z,75.80
2023-11-24T22:37:36.557Z,75.77
2023-11-24T22:40:40.488Z,75.61
2023-11-24T22:43:44.063Z,75.46
2023-11-24T22:46:46.879Z,74.67
2023-11-24T22:49:49.799Z,74.09
2023-11-24T22:52:52.758Z,73.42
2023-11-24T22:55:55.111Z,73.53
2023-11-24T22:58:59.743Z,73.57
2023-11-24T23:02:02.315Z,73.07
2023-11-24T23:05:06.504Z,72.95
2023-11-24T23:08:08.908Z,72.29
2023-11-24T23:11:16.719Z,72.09
2023-11-24T23:14:21.111Z,71.74
2023-11-24T23:17:23.966Z,72.22
2023-11-24T23:20:26.455Z,72.42
2023-11-24T23:23:29.144Z,72.36
2023-11-24T23:26:31.475Z,72.91
2023-11-24T23:29:36.665Z,73.11
2023-11-24T23:32:39.021Z,73.40
2023-11-24T23:35:41.818Z,74.06
2023-11-24T23:38:46.608Z,74.20
2023-11-24T23:41:49.276Z,74.36
2023-11-24T23:44:51.656Z,74.12
2023-11-24T23:47:54.358Z,74.34
2023-11-24T23:50:56.825Z,74.58
2023-11-24T23:53:59.520Z,74.69
2023-11-24T23:57:01.868Z,74.71
